Sentinel, Oklahoma
Current Conditions -  °F | °C
As of 5:53 AM on Friday 31 Oct 2014 (Local Time) from KCSM Reporting Station
Clear Clear  
Wind Chill: 42°   Ceiling: Unl
Heat Index: 47°   Visibility: 10mi
Dew Point: 35°   Wind: 12mph
Humidity: 63%   Direction: 20°NNE
Pressure: 30.37"   Gusts: NA
Location:  35.16°N, 99.18°W
Report Text: KCSM 311053Z AUTO 02010KT 10SM CLR 08/02 A3037 RMK AO2 SLP275 T00830017
Loading
Personal Weather Stations






























Interactive Weather Map
Tropical Storm Tracking
New forecast layout! Learn more

10-Day Weather Forecast

Advertisements
Track Severe Weather on mobile